sensor_id;sensor_type;location;lat;lon;timestamp;pressure;altitude;pressure_sealevel;temperature;humidity
76404;BME280;65232;48.358;2.122;2023-04-24T00:00:23;100140.41;;;8.56;80.58
76404;BME280;65232;48.358;2.122;2023-04-24T00:00:49;100145.16;;;8.52;80.68
76404;BME280;65232;48.358;2.122;2023-04-24T00:01:14;100145.03;;;8.54;80.58
76404;BME280;65232;48.358;2.122;2023-04-24T00:01:40;100150.63;;;8.51;80.62
76404;BME280;65232;48.358;2.122;2023-04-24T00:02:05;100143.84;;;8.46;80.69
76404;BME280;65232;48.358;2.122;2023-04-24T00:02:32;100141.19;;;8.46;80.58
76404;BME280;65232;48.358;2.122;2023-04-24T00:02:58;100139.66;;;8.44;80.60
76404;BME280;65232;48.358;2.122;2023-04-24T00:03:23;100139.91;;;8.41;81.07
76404;BME280;65232;48.358;2.122;2023-04-24T00:03:49;100144.38;;;8.40;80.77
76404;BME280;65232;48.358;2.122;2023-04-24T00:04:15;100143.28;;;8.43;80.85
76404;BME280;65232;48.358;2.122;2023-04-24T00:04:41;100140.63;;;8.43;80.96
76404;BME280;65232;48.358;2.122;2023-04-24T00:05:09;100137.22;;;8.41;81.20
76404;BME280;65232;48.358;2.122;2023-04-24T00:05:35;100139.06;;;8.40;81.02
76404;BME280;65232;48.358;2.122;2023-04-24T00:06:00;100146.06;;;8.41;80.86
76404;BME280;65232;48.358;2.122;2023-04-24T00:06:26;100148.63;;;8.43;80.78
76404;BME280;65232;48.358;2.122;2023-04-24T00:06:58;100147.53;;;8.45;80.88
76404;BME280;65232;48.358;2.122;2023-04-24T00:07:25;100146.00;;;8.53;80.49
76404;BME280;65232;48.358;2.122;2023-04-24T00:07:50;100149.06;;;8.48;80.45
76404;BME280;65232;48.358;2.122;2023-04-24T00:08:19;100150.50;;;8.52;80.42
76404;BME280;65232;48.358;2.122;2023-04-24T00:08:45;100150.38;;;8.54;80.20
76404;BME280;65232;48.358;2.122;2023-04-24T00:09:10;100151.22;;;8.54;80.29
76404;BME280;65232;48.358;2.122;2023-04-24T00:09:36;100148.94;;;8.49;80.43
76404;BME280;65232;48.358;2.122;2023-04-24T00:10:01;100147.22;;;8.48;80.50
76404;BME280;65232;48.358;2.122;2023-04-24T00:10:27;100147.09;;;8.50;80.40
76404;BME280;65232;48.358;2.122;2023-04-24T00:10:52;100155.22;;;8.48;80.41
76404;BME280;65232;48.358;2.122;2023-04-24T00:11:18;100154.69;;;8.45;80.50
76404;BME280;65232;48.358;2.122;2023-04-24T00:11:44;100147.66;;;8.44;80.70
76404;BME280;65232;48.358;2.122;2023-04-24T00:12:09;100153.22;;;8.41;80.77
76404;BME280;65232;48.358;2.122;2023-04-24T00:12:35;100149.47;;;8.43;80.71
76404;BME280;65232;48.358;2.122;2023-04-24T00:13:01;100152.38;;;8.40;80.89
76404;BME280;65232;48.358;2.122;2023-04-24T00:13:27;100148.28;;;8.36;80.92
76404;BME280;65232;48.358;2.122;2023-04-24T00:13:53;100148.28;;;8.36;80.98
76404;BME280;65232;48.358;2.122;2023-04-24T00:14:19;100153.47;;;8.38;80.85
76404;BME280;65232;48.358;2.122;2023-04-24T00:14:44;100152.41;;;8.29;81.08
76404;BME280;65232;48.358;2.122;2023-04-24T00:15:10;100150.59;;;8.30;81.19
76404;BME280;65232;48.358;2.122;2023-04-24T00:15:36;100151.44;;;8.30;81.14
76404;BME280;65232;48.358;2.122;2023-04-24T00:16:01;100147.22;;;8.28;81.16
76404;BME280;65232;48.358;2.122;2023-04-24T00:16:27;100150.97;;;8.25;81.19
76404;BME280;65232;48.358;2.122;2023-04-24T00:16:52;100152.91;;;8.23;81.37
76404;BME280;65232;48.358;2.122;2023-04-24T00:17:18;100155.72;;;8.22;81.60
76404;BME280;65232;48.358;2.122;2023-04-24T00:17:46;100153.16;;;8.20;81.73
76404;BME280;65232;48.358;2.122;2023-04-24T00:18:12;100148.44;;;8.24;81.49
76404;BME280;65232;48.358;2.122;2023-04-24T00:18:38;100153.63;;;8.25;81.64
76404;BME280;65232;48.358;2.122;2023-04-24T00:19:03;100158.00;;;8.26;81.65
76404;BME280;65232;48.358;2.122;2023-04-24T00:19:31;100161.88;;;8.22;81.85
76404;BME280;65232;48.358;2.122;2023-04-24T00:19:56;100150.13;;;8.25;81.53
76404;BME280;65232;48.358;2.122;2023-04-24T00:20:26;100150.84;;;8.27;81.44
76404;BME280;65232;48.358;2.122;2023-04-24T00:20:51;100156.44;;;8.24;81.53
76404;BME280;65232;48.358;2.122;2023-04-24T00:21:17;100154.09;;;8.30;81.56
76404;BME280;65232;48.358;2.122;2023-04-24T00:21:43;100159.19;;;8.33;81.30
76404;BME280;65232;48.358;2.122;2023-04-24T00:22:08;100157.03;;;8.27;81.31
76404;BME280;65232;48.358;2.122;2023-04-24T00:22:33;100158.25;;;8.23;81.43
76404;BME280;65232;48.358;2.122;2023-04-24T00:22:59;100155.94;;;8.19;81.57
76404;BME280;65232;48.358;2.122;2023-04-24T00:23:24;100153.28;;;8.19;81.54
76404;BME280;65232;48.358;2.122;2023-04-24T00:23:50;100152.31;;;8.20;81.52
76404;BME280;65232;48.358;2.122;2023-04-24T00:24:16;100157.53;;;8.21;81.47
76404;BME280;65232;48.358;2.122;2023-04-24T00:24:42;100156.94;;;8.18;81.44
76404;BME280;65232;48.358;2.122;2023-04-24T00:25:08;100167.59;;;8.18;81.75
76404;BME280;65232;48.358;2.122;2023-04-24T00:25:33;100152.41;;;8.29;81.29
76404;BME280;65232;48.358;2.122;2023-04-24T00:25:59;100158.72;;;8.28;81.36
76404;BME280;65232;48.358;2.122;2023-04-24T00:26:24;100158.84;;;8.27;81.03
76404;BME280;65232;48.358;2.122;2023-04-24T00:26:50;100158.97;;;8.25;81.33
76404;BME280;65232;48.358;2.122;2023-04-24T00:27:16;100153.25;;;8.30;81.07
76404;BME280;65232;48.358;2.122;2023-04-24T00:27:41;100159.56;;;8.29;81.02
76404;BME280;65232;48.358;2.122;2023-04-24T00:28:06;100161.75;;;8.24;81.26
76404;BME280;65232;48.358;2.122;2023-04-24T00:28:32;100161.63;;;8.25;81.42
76404;BME280;65232;48.358;2.122;2023-04-24T00:28:57;100163.44;;;8.25;81.20
76404;BME280;65232;48.358;2.122;2023-04-24T00:29:23;100162.13;;;8.19;81.62
76404;BME280;65232;48.358;2.122;2023-04-24T00:29:48;100159.88;;;8.14;81.76
76404;BME280;65232;48.358;2.122;2023-04-24T00:30:14;100162.25;;;8.18;81.60
76404;BME280;65232;48.358;2.122;2023-04-24T00:30:39;100158.50;;;8.20;81.56
76404;BME280;65232;48.358;2.122;2023-04-24T00:31:05;100160.44;;;8.18;81.53
76404;BME280;65232;48.358;2.122;2023-04-24T00:31:30;100163.69;;;8.22;81.19
76404;BME280;65232;48.358;2.122;2023-04-24T00:31:56;100168.97;;;8.12;81.44
76404;BME280;65232;48.358;2.122;2023-04-24T00:32:22;100161.22;;;8.09;81.38
76404;BME280;65232;48.358;2.122;2023-04-24T00:32:47;100167.38;;;8.09;81.76
76404;BME280;65232;48.358;2.122;2023-04-24T00:33:13;100160.38;;;8.08;81.72
76404;BME280;65232;48.358;2.122;2023-04-24T00:33:39;100160.38;;;8.08;81.77
76404;BME280;65232;48.358;2.122;2023-04-24T00:34:05;100165.63;;;7.99;81.71
76404;BME280;65232;48.358;2.122;2023-04-24T00:34:30;100166.06;;;8.04;81.86
76404;BME280;65232;48.358;2.122;2023-04-24T00:34:57;100162.78;;;8.11;81.65
76404;BME280;65232;48.358;2.122;2023-04-24T00:35:22;100170.44;;;8.05;81.64
76404;BME280;65232;48.358;2.122;2023-04-24T00:35:48;100168.59;;;8.05;81.64
76404;BME280;65232;48.358;2.122;2023-04-24T00:36:14;100167.75;;;8.05;81.81
76404;BME280;65232;48.358;2.122;2023-04-24T00:36:39;100169.97;;;8.00;81.74
76404;BME280;65232;48.358;2.122;2023-04-24T00:37:05;100169.44;;;8.06;81.59
76404;BME280;65232;48.358;2.122;2023-04-24T00:37:31;100161.09;;;8.10;81.37
76404;BME280;65232;48.358;2.122;2023-04-24T00:37:56;100176.22;;;8.10;81.46
76404;BME280;65232;48.358;2.122;2023-04-24T00:38:22;100171.63;;;8.12;81.29
76404;BME280;65232;48.358;2.122;2023-04-24T00:38:47;100169.94;;;8.11;81.36
76404;BME280;65232;48.358;2.122;2023-04-24T00:39:13;100168.91;;;8.23;80.94
76404;BME280;65232;48.358;2.122;2023-04-24T00:39:38;100172.91;;;8.18;80.80
76404;BME280;65232;48.358;2.122;2023-04-24T00:40:04;100182.03;;;8.15;80.97
76404;BME280;65232;48.358;2.122;2023-04-24T00:40:31;100177.03;;;8.22;80.97
76404;BME280;65232;48.358;2.122;2023-04-24T00:40:56;100181.88;;;8.17;81.03
76404;BME280;65232;48.358;2.122;2023-04-24T00:41:22;100179.03;;;8.08;81.40
76404;BME280;65232;48.358;2.122;2023-04-24T00:41:49;100177.31;;;8.07;81.27
76404;BME280;65232;48.358;2.122;2023-04-24T00:42:16;100183.25;;;8.11;81.55
76404;BME280;65232;48.358;2.122;2023-04-24T00:42:41;100175.38;;;8.09;81.27
76404;BME280;65232;48.358;2.122;2023-04-24T00:43:07;100180.00;;;8.07;81.25
76404;BME280;65232;48.358;2.122;2023-04-24T00:43:33;100182.06;;;8.04;81.46
76404;BME280;65232;48.358;2.122;2023-04-24T00:43:59;100178.66;;;8.02;81.76
76404;BME280;65232;48.358;2.122;2023-04-24T00:44:25;100180.63;;;8.00;81.85
76404;BME280;65232;48.358;2.122;2023-04-24T00:44:50;100173.34;;;8.02;81.86
76404;BME280;65232;48.358;2.122;2023-04-24T00:45:16;100182.66;;;8.07;81.85
76404;BME280;65232;48.358;2.122;2023-04-24T00:45:43;100179.63;;;8.12;81.67
76404;BME280;65232;48.358;2.122;2023-04-24T00:46:08;100180.72;;;8.09;81.70
76404;BME280;65232;48.358;2.122;2023-04-24T00:46:33;100178.78;;;8.11;81.50
76404;BME280;65232;48.358;2.122;2023-04-24T00:46:59;100176.84;;;8.13;81.49
76404;BME280;65232;48.358;2.122;2023-04-24T00:47:25;100175.75;;;8.16;81.35
76404;BME280;65232;48.358;2.122;2023-04-24T00:47:52;100175.75;;;8.05;81.46
76404;BME280;65232;48.358;2.122;2023-04-24T00:48:18;100187.66;;;8.01;81.58
76404;BME280;65232;48.358;2.122;2023-04-24T00:48:45;100178.81;;;8.00;81.56
76404;BME280;65232;48.358;2.122;2023-04-24T00:49:12;100177.97;;;8.00;81.59
76404;BME280;65232;48.358;2.122;2023-04-24T00:49:38;100183.41;;;7.98;81.71
76404;BME280;65232;48.358;2.122;2023-04-24T00:50:05;100177.69;;;8.03;81.73
76404;BME280;65232;48.358;2.122;2023-04-24T00:50:31;100185.00;;;8.01;81.62
76404;BME280;65232;48.358;2.122;2023-04-24T00:50:56;100180.47;;;8.01;81.53
76404;BME280;65232;48.358;2.122;2023-04-24T00:51:23;100178.09;;;7.98;81.69
76404;BME280;65232;48.358;2.122;2023-04-24T00:51:49;100182.19;;;8.02;81.52
76404;BME280;65232;48.358;2.122;2023-04-24T00:52:16;100180.63;;;8.00;81.34
76404;BME280;65232;48.358;2.122;2023-04-24T00:52:42;100186.94;;;7.99;81.47
76404;BME280;65232;48.358;2.122;2023-04-24T00:53:08;100184.84;;;8.02;81.43
76404;BME280;65232;48.358;2.122;2023-04-24T00:53:33;100181.59;;;7.99;81.16
76404;BME280;65232;48.358;2.122;2023-04-24T00:53:59;100183.53;;;7.97;81.20
76404;BME280;65232;48.358;2.122;2023-04-24T00:54:25;100182.81;;;7.95;81.46
76404;BME280;65232;48.358;2.122;2023-04-24T00:54:50;100182.56;;;7.98;81.17
76404;BME280;65232;48.358;2.122;2023-04-24T00:55:16;100186.66;;;8.02;81.19
76404;BME280;65232;48.358;2.122;2023-04-24T00:55:42;100192.09;;;8.11;80.80
76404;BME280;65232;48.358;2.122;2023-04-24T00:56:07;100182.53;;;8.09;80.83
76404;BME280;65232;48.358;2.122;2023-04-24T00:56:33;100182.78;;;8.06;80.92
76404;BME280;65232;48.358;2.122;2023-04-24T00:56:59;100182.91;;;8.04;80.89
76404;BME280;65232;48.358;2.122;2023-04-24T00:57:26;100188.75;;;7.98;81.44
76404;BME280;65232;48.358;2.122;2023-04-24T00:57:51;100187.06;;;7.97;81.37
76404;BME280;65232;48.358;2.122;2023-04-24T00:58:17;100185.25;;;7.98;81.17
76404;BME280;65232;48.358;2.122;2023-04-24T00:58:44;100188.34;;;8.03;81.19
76404;BME280;65232;48.358;2.122;2023-04-24T00:59:11;100179.91;;;7.98;81.09
76404;BME280;65232;48.358;2.122;2023-04-24T00:59:37;100189.00;;;7.95;81.18
76404;BME280;65232;48.358;2.122;2023-04-24T01:00:04;100186.31;;;7.95;81.38
76404;BME280;65232;48.358;2.122;2023-04-24T01:00:31;100195.66;;;7.90;81.60
76404;BME280;65232;48.358;2.122;2023-04-24T01:00:57;100193.72;;;7.92;81.59
76404;BME280;65232;48.358;2.122;2023-04-24T01:01:23;100193.13;;;7.88;81.69
76404;BME280;65232;48.358;2.122;2023-04-24T01:01:49;100188.16;;;7.95;81.32
76404;BME280;65232;48.358;2.122;2023-04-24T01:02:15;100190.81;;;7.95;81.56
76404;BME280;65232;48.358;2.122;2023-04-24T01:02:41;100191.78;;;7.94;81.45
76404;BME280;65232;48.358;2.122;2023-04-24T01:03:12;100192.59;;;8.05;81.01
76404;BME280;65232;48.358;2.122;2023-04-24T01:03:38;100198.63;;;8.07;80.59
76404;BME280;65232;48.358;2.122;2023-04-24T01:04:05;100193.56;;;8.04;80.56
76404;BME280;65232;48.358;2.122;2023-04-24T01:04:32;100195.78;;;7.99;80.93
76404;BME280;65232;48.358;2.122;2023-04-24T01:04:58;100188.38;;;7.92;81.36
76404;BME280;65232;48.358;2.122;2023-04-24T01:05:23;100199.06;;;7.92;81.09
76404;BME280;65232;48.358;2.122;2023-04-24T01:05:49;100199.91;;;7.92;81.13
76404;BME280;65232;48.358;2.122;2023-04-24T01:06:15;100195.41;;;7.93;81.01
76404;BME280;65232;48.358;2.122;2023-04-24T01:06:43;100189.25;;;7.92;81.24
76404;BME280;65232;48.358;2.122;2023-04-24T01:07:09;100187.66;;;7.90;80.99
76404;BME280;65232;48.358;2.122;2023-04-24T01:07:36;100194.69;;;7.91;81.15
76404;BME280;65232;48.358;2.122;2023-04-24T01:08:02;100196.50;;;7.90;81.15
76404;BME280;65232;48.358;2.122;2023-04-24T01:08:28;100188.38;;;7.92;81.27
76404;BME280;65232;48.358;2.122;2023-04-24T01:08:55;100198.44;;;7.88;81.50
76404;BME280;65232;48.358;2.122;2023-04-24T01:09:23;100194.56;;;7.92;81.28
76404;BME280;65232;48.358;2.122;2023-04-24T01:09:49;100197.22;;;7.92;81.33
76404;BME280;65232;48.358;2.122;2023-04-24T01:10:17;100185.59;;;7.93;81.07
76404;BME280;65232;48.358;2.122;2023-04-24T01:10:44;100195.41;;;7.93;80.88
76404;BME280;65232;48.358;2.122;2023-04-24T01:11:11;100186.69;;;7.91;81.04
76404;BME280;65232;48.358;2.122;2023-04-24T01:11:37;100199.78;;;7.94;81.02
76404;BME280;65232;48.358;2.122;2023-04-24T01:12:04;100196.00;;;7.96;80.76
76404;BME280;65232;48.358;2.122;2023-04-24T01:12:29;100197.59;;;7.99;80.84
76404;BME280;65232;48.358;2.122;2023-04-24T01:12:55;100198.06;;;7.93;81.11
76404;BME280;65232;48.358;2.122;2023-04-24T01:13:20;100205.00;;;7.84;81.39
76404;BME280;65232;48.358;2.122;2023-04-24T01:13:47;100211.63;;;7.90;81.24
76404;BME280;65232;48.358;2.122;2023-04-24T01:14:13;100202.47;;;7.83;81.35
76404;BME280;65232;48.358;2.122;2023-04-24T01:14:38;100201.63;;;7.82;81.63
76404;BME280;65232;48.358;2.122;2023-04-24T01:15:04;100202.47;;;7.83;81.44
76404;BME280;65232;48.358;2.122;2023-04-24T01:15:31;100207.91;;;7.81;81.50
76404;BME280;65232;48.358;2.122;2023-04-24T01:15:57;100204.66;;;7.77;81.47
76404;BME280;65232;48.358;2.122;2023-04-24T01:16:22;100210.59;;;7.81;81.52
76404;BME280;65232;48.358;2.122;2023-04-24T01:16:48;100202.47;;;7.83;81.31
76404;BME280;65232;48.358;2.122;2023-04-24T01:17:13;100200.91;;;7.80;81.19
76404;BME280;65232;48.358;2.122;2023-04-24T01:17:39;100205.97;;;7.83;81.19
76404;BME280;65232;48.358;2.122;2023-04-24T01:18:04;100208.75;;;7.82;81.40
76404;BME280;65232;48.358;2.122;2023-04-24T01:18:30;100201.00;;;7.78;81.54
76404;BME280;65232;48.358;2.122;2023-04-24T01:18:55;100206.22;;;7.80;81.45
76404;BME280;65232;48.358;2.122;2023-04-24T01:19:21;100198.34;;;7.78;81.33
76404;BME280;65232;48.358;2.122;2023-04-24T01:19:46;100206.34;;;7.78;81.46
76404;BME280;65232;48.358;2.122;2023-04-24T01:20:12;100209.13;;;7.77;81.42
76404;BME280;65232;48.358;2.122;2023-04-24T01:20:41;100209.13;;;7.77;81.63
76404;BME280;65232;48.358;2.122;2023-04-24T01:21:08;100210.22;;;7.74;81.62
76404;BME280;65232;48.358;2.122;2023-04-24T01:21:36;100210.34;;;7.73;81.85
76404;BME280;65232;48.358;2.122;2023-04-24T01:22:03;100210.22;;;7.74;81.80
76404;BME280;65232;48.358;2.122;2023-04-24T01:22:28;100215.41;;;7.76;81.73
76404;BME280;65232;48.358;2.122;2023-04-24T01:22:54;100210.47;;;7.83;81.70
76404;BME280;65232;48.358;2.122;2023-04-24T01:23:22;100208.66;;;7.83;81.55
76404;BME280;65232;48.358;2.122;2023-04-24T01:23:47;100211.75;;;7.88;81.10
76404;BME280;65232;48.358;2.122;2023-04-24T01:24:13;100217.22;;;7.98;81.30
76404;BME280;65232;48.358;2.122;2023-04-24T01:24:38;100211.63;;;7.90;81.16
76404;BME280;65232;48.358;2.122;2023-04-24T01:25:04;100211.88;;;7.87;80.99
76404;BME280;65232;48.358;2.122;2023-04-24T01:25:30;100209.34;;;7.96;81.29
76404;BME280;65232;48.358;2.122;2023-04-24T01:25:56;100205.22;;;7.92;80.95
76404;BME280;65232;48.358;2.122;2023-04-24T01:26:23;100204.16;;;7.84;81.31
76404;BME280;65232;48.358;2.122;2023-04-24T01:26:48;100207.56;;;7.86;81.36
76404;BME280;65232;48.358;2.122;2023-04-24T01:27:14;100208.88;;;7.80;81.53
76404;BME280;65232;48.358;2.122;2023-04-24T01:27:39;100202.97;;;7.76;81.53
76404;BME280;65232;48.358;2.122;2023-04-24T01:28:05;100205.28;;;7.70;81.82
76404;BME280;65232;48.358;2.122;2023-04-24T01:28:30;100202.63;;;7.70;82.14
76404;BME280;65232;48.358;2.122;2023-04-24T01:28:57;100204.44;;;7.69;81.98
76404;BME280;65232;48.358;2.122;2023-04-24T01:29:22;100202.72;;;7.79;81.75
76404;BME280;65232;48.358;2.122;2023-04-24T01:29:48;100190.84;;;7.84;81.65
76404;BME280;65232;48.358;2.122;2023-04-24T01:30:14;100197.25;;;7.81;81.63
76404;BME280;65232;48.358;2.122;2023-04-24T01:30:40;100196.41;;;7.81;81.75
76404;BME280;65232;48.358;2.122;2023-04-24T01:31:05;100196.06;;;7.85;81.63
76404;BME280;65232;48.358;2.122;2023-04-24T01:31:31;100198.97;;;7.82;81.62
76404;BME280;65232;48.358;2.122;2023-04-24T01:31:58;100194.59;;;7.81;81.69
76404;BME280;65232;48.358;2.122;2023-04-24T01:32:24;100196.53;;;7.79;81.66
76404;BME280;65232;48.358;2.122;2023-04-24T01:32:50;100195.69;;;7.78;81.77
76404;BME280;65232;48.358;2.122;2023-04-24T01:33:17;100194.84;;;7.78;81.80
76404;BME280;65232;48.358;2.122;2023-04-24T01:33:42;100198.72;;;7.74;82.05
76404;BME280;65232;48.358;2.122;2023-04-24T01:34:08;100192.09;;;7.68;82.10
76404;BME280;65232;48.358;2.122;2023-04-24T01:34:34;100197.03;;;7.62;82.24
76404;BME280;65232;48.358;2.122;2023-04-24T01:34:59;100193.78;;;7.69;82.05
76404;BME280;65232;48.358;2.122;2023-04-24T01:35:25;100192.81;;;7.70;82.18
76404;BME280;65232;48.358;2.122;2023-04-24T01:35:51;100192.41;;;7.75;81.92
76404;BME280;65232;48.358;2.122;2023-04-24T01:36:17;100187.59;;;7.69;82.06
76404;BME280;65232;48.358;2.122;2023-04-24T01:36:45;100196.19;;;7.72;82.05
76404;BME280;65232;48.358;2.122;2023-04-24T01:37:11;100196.91;;;7.86;81.93
76404;BME280;65232;48.358;2.122;2023-04-24T01:37:36;100190.84;;;7.84;81.64
76404;BME280;65232;48.358;2.122;2023-04-24T01:38:05;100194.25;;;7.86;81.67
76404;BME280;65232;48.358;2.122;2023-04-24T01:38:30;100184.28;;;7.99;81.20
76404;BME280;65232;48.358;2.122;2023-04-24T01:38:56;100185.25;;;7.98;80.83
76404;BME280;65232;48.358;2.122;2023-04-24T01:39:25;100186.94;;;7.99;80.94
76404;BME280;65232;48.358;2.122;2023-04-24T01:39:53;100181.97;;;7.94;81.05
76404;BME280;65232;48.358;2.122;2023-04-24T01:40:18;100192.75;;;7.93;81.03
76404;BME280;65232;48.358;2.122;2023-04-24T01:40:44;100195.09;;;7.86;81.16
76404;BME280;65232;48.358;2.122;2023-04-24T01:41:10;100194.19;;;7.97;81.11
76404;BME280;65232;48.358;2.122;2023-04-24T01:41:36;100197.84;;;7.96;80.90
76404;BME280;65232;48.358;2.122;2023-04-24T01:42:01;100199.53;;;7.97;81.04
76404;BME280;65232;48.358;2.122;2023-04-24T01:42:27;100197.25;;;7.81;81.44
76404;BME280;65232;48.358;2.122;2023-04-24T01:42:54;100203.31;;;7.72;81.75
76404;BME280;65232;48.358;2.122;2023-04-24T01:43:19;100208.91;;;7.69;81.86
76404;BME280;65232;48.358;2.122;2023-04-24T01:43:45;100211.66;;;7.78;81.89
76404;BME280;65232;48.358;2.122;2023-04-24T01:44:11;100203.81;;;7.77;81.70
76404;BME280;65232;48.358;2.122;2023-04-24T01:44:36;100205.84;;;7.73;81.96
76404;BME280;65232;48.358;2.122;2023-04-24T01:45:04;100211.56;;;7.69;81.85
76404;BME280;65232;48.358;2.122;2023-04-24T01:45:30;100211.47;;;7.70;81.96
76404;BME280;65232;48.358;2.122;2023-04-24T01:45:55;100206.25;;;7.69;82.18
76404;BME280;65232;48.358;2.122;2023-04-24T01:46:21;100207.22;;;7.68;81.91
76404;BME280;65232;48.358;2.122;2023-04-24T01:46:47;100206.38;;;7.67;81.78
76404;BME280;65232;48.358;2.122;2023-04-24T01:47:13;100206.50;;;7.66;82.24
76404;BME280;65232;48.358;2.122;2023-04-24T01:47:39;100203.56;;;7.80;81.86
76404;BME280;65232;48.358;2.122;2023-04-24T01:48:04;100207.91;;;7.81;81.74
76404;BME280;65232;48.358;2.122;2023-04-24T01:48:31;100212.75;;;7.76;81.51
76404;BME280;65232;48.358;2.122;2023-04-24T01:48:58;100215.66;;;7.73;81.45
76404;BME280;65232;48.358;2.122;2023-04-24T01:49:25;100214.81;;;7.72;81.82
76404;BME280;65232;48.358;2.122;2023-04-24T01:49:50;100209.50;;;7.72;81.68
76404;BME280;65232;48.358;2.122;2023-04-24T01:50:16;100215.53;;;7.74;81.59
76404;BME280;65232;48.358;2.122;2023-04-24T01:50:41;100215.06;;;7.81;81.42
76404;BME280;65232;48.358;2.122;2023-04-24T01:51:10;100210.34;;;7.84;81.09
76404;BME280;65232;48.358;2.122;2023-04-24T01:51:36;100219.41;;;7.82;81.23
76404;BME280;65232;48.358;2.122;2023-04-24T01:52:02;100215.19;;;7.79;81.13
76404;BME280;65232;48.358;2.122;2023-04-24T01:52:29;100216.28;;;7.76;81.41
76404;BME280;65232;48.358;2.122;2023-04-24T01:52:58;100213.97;;;7.72;81.22
76404;BME280;65232;48.358;2.122;2023-04-24T01:53:23;100212.06;;;7.63;81.84
76404;BME280;65232;48.358;2.122;2023-04-24T01:53:49;100214.38;;;7.56;81.98
76404;BME280;65232;48.358;2.122;2023-04-24T01:54:14;100217.28;;;7.53;82.12
76404;BME280;65232;48.358;2.122;2023-04-24T01:54:40;100213.53;;;7.56;82.30
76404;BME280;65232;48.358;2.122;2023-04-24T01:55:06;100211.00;;;7.54;82.12
76404;BME280;65232;48.358;2.122;2023-04-24T01:55:32;100214.72;;;7.52;82.59
76404;BME280;65232;48.358;2.122;2023-04-24T01:55:58;100207.00;;;7.49;82.79
76404;BME280;65232;48.358;2.122;2023-04-24T01:56:24;100210.63;;;7.48;82.73
76404;BME280;65232;48.358;2.122;2023-04-24T01:56:50;100210.38;;;7.51;82.58
76404;BME280;65232;48.358;2.122;2023-04-24T01:57:16;100215.59;;;7.52;82.44
76404;BME280;65232;48.358;2.122;2023-04-24T01:57:41;100213.66;;;7.54;82.33
76404;BME280;65232;48.358;2.122;2023-04-24T01:58:07;100209.41;;;7.52;82.48
76404;BME280;65232;48.358;2.122;2023-04-24T01:58:32;100210.13;;;7.54;82.49
76404;BME280;65232;48.358;2.122;2023-04-24T01:58:59;100210.13;;;7.54;82.37
76404;BME280;65232;48.358;2.122;2023-04-24T01:59:25;100206.63;;;7.53;82.18
76404;BME280;65232;48.358;2.122;2023-04-24T01:59:51;100207.09;;;7.58;82.38
76404;BME280;65232;48.358;2.122;2023-04-24T02:00:17;100208.53;;;7.62;82.13
76404;BME280;65232;48.358;2.122;2023-04-24T02:00:44;100208.19;;;7.67;81.69
76404;BME280;65232;48.358;2.122;2023-04-24T02:01:15;100204.91;;;7.63;81.88
76404;BME280;65232;48.358;2.122;2023-04-24T02:01:40;100206.13;;;7.59;81.78
76404;BME280;65232;48.358;2.122;2023-04-24T02:02:06;100207.09;;;7.58;82.04
76404;BME280;65232;48.358;2.122;2023-04-24T02:02:31;100209.28;;;7.64;81.94
76404;BME280;65232;48.358;2.122;2023-04-24T02:02:57;100205.41;;;7.68;81.73
76404;BME280;65232;48.358;2.122;2023-04-24T02:03:27;100208.19;;;7.67;81.77
76404;BME280;65232;48.358;2.122;2023-04-24T02:03:54;100208.19;;;7.67;81.76
76404;BME280;65232;48.358;2.122;2023-04-24T02:04:19;100214.47;;;7.66;81.76
76404;BME280;65232;48.358;2.122;2023-04-24T02:04:45;100216.41;;;7.64;81.72
76404;BME280;65232;48.358;2.122;2023-04-24T02:05:11;100208.53;;;7.62;81.81
76404;BME280;65232;48.358;2.122;2023-04-24T02:05:36;100215.56;;;7.63;81.60
76404;BME280;65232;48.358;2.122;2023-04-24T02:06:02;100218.59;;;7.59;81.68
76404;BME280;65232;48.358;2.122;2023-04-24T02:06:27;100223.56;;;7.52;82.12
76404;BME280;65232;48.358;2.122;2023-04-24T02:06:53;100221.63;;;7.54;82.04
76404;BME280;65232;48.358;2.122;2023-04-24T02:07:18;100219.09;;;7.53;81.85
76404;BME280;65232;48.358;2.122;2023-04-24T02:07:44;100217.03;;;7.56;81.76
76404;BME280;65232;48.358;2.122;2023-04-24T02:08:10;100218.84;;;7.56;81.87
76404;BME280;65232;48.358;2.122;2023-04-24T02:08:36;100225.03;;;7.56;82.09
76404;BME280;65232;48.358;2.122;2023-04-24T02:09:02;100218.59;;;7.59;82.06
76404;BME280;65232;48.358;2.122;2023-04-24T02:09:28;100222.72;;;7.63;81.91
76404;BME280;65232;48.358;2.122;2023-04-24T02:09:53;100223.91;;;7.59;82.04
76404;BME280;65232;48.358;2.122;2023-04-24T02:10:20;100219.94;;;7.64;82.08
76404;BME280;65232;48.358;2.122;2023-04-24T02:10:45;100226.69;;;7.57;82.05
76404;BME280;65232;48.358;2.122;2023-04-24T02:11:11;100219.44;;;7.59;82.27
76404;BME280;65232;48.358;2.122;2023-04-24T02:11:36;100227.66;;;7.67;82.01
76404;BME280;65232;48.358;2.122;2023-04-24T02:12:02;100216.06;;;7.68;81.83
76404;BME280;65232;48.358;2.122;2023-04-24T02:12:27;100216.63;;;7.72;81.74
76404;BME280;65232;48.358;2.122;2023-04-24T02:12:53;100222.56;;;7.75;81.71
76404;BME280;65232;48.358;2.122;2023-04-24T02:13:18;100221.56;;;7.88;81.42
76404;BME280;65232;48.358;2.122;2023-04-24T02:13:44;100221.72;;;7.86;80.88
76404;BME280;65232;48.358;2.122;2023-04-24T02:14:10;100230.19;;;7.80;80.71
76404;BME280;65232;48.358;2.122;2023-04-24T02:14:38;100228.13;;;7.84;80.81
76404;BME280;65232;48.358;2.122;2023-04-24T02:15:05;100230.31;;;7.78;80.84
76404;BME280;65232;48.358;2.122;2023-04-24T02:15:30;100231.16;;;7.79;81.10
76404;BME280;65232;48.358;2.122;2023-04-24T02:15:56;100228.84;;;7.74;81.67
76404;BME280;65232;48.358;2.122;2023-04-24T02:16:23;100229.13;;;7.71;81.44
76404;BME280;65232;48.358;2.122;2023-04-24T02:16:49;100228.16;;;7.61;82.01
76404;BME280;65232;48.358;2.122;2023-04-24T02:17:14;100232.03;;;7.57;82.11
76404;BME280;65232;48.358;2.122;2023-04-24T02:17:41;100222.22;;;7.58;82.20
76404;BME280;65232;48.358;2.122;2023-04-24T02:18:06;100227.66;;;7.67;81.79